Time;durP1;ratioP1;P1;durP2;ratioP2;P2;SDS_P1;SDS_P2;PMS_P1;PMS_P2;Temp;Humidity;BMP_temperature;BMP_pressure;BME280_temperature;BME280_humidity;BME280_pressure;Samples;Min_cycle;Max_cycle;Signal;HPM_P1;HPM_P2
2021/10/21 00:02:24;;;;;;;29.30;7.40;;;14.90;99.90;;;;;;5083975;28;20500;-71
2021/10/21 00:04:49;;;;;;;36.35;7.80;;;14.90;99.90;;;;;;5068460;28;20466;-71
2021/10/21 00:07:15;;;;;;;33.03;7.90;;;14.90;99.90;;;;;;5083576;28;20417;-70
2021/10/21 00:09:41;;;;;;;37.03;7.27;;;14.90;99.90;;;;;;5067727;28;20413;-70
2021/10/21 00:12:07;;;;;;;30.70;6.85;;;14.90;99.90;;;;;;5084268;28;20524;-70
2021/10/21 00:14:33;;;;;;;27.13;5.50;;;14.90;99.90;;;;;;5092948;28;20405;-70
2021/10/21 00:16:59;;;;;;;28.55;5.18;;;14.90;99.90;;;;;;5048851;28;20410;-70
2021/10/21 00:19:25;;;;;;;24.30;5.30;;;14.90;99.90;;;;;;5094665;28;20408;-72
2021/10/21 00:21:51;;;;;;;21.67;4.55;;;14.90;99.90;;;;;;5084634;28;20410;-71
2021/10/21 00:24:18;;;;;;;18.17;4.40;;;14.90;99.90;;;;;;5071244;28;20748;-71
2021/10/21 00:26:44;;;;;;;24.30;4.50;;;14.90;99.90;;;;;;5086145;28;20409;-71
2021/10/21 00:29:10;;;;;;;32.03;5.97;;;14.90;99.90;;;;;;5087789;28;20394;-71
2021/10/21 00:31:35;;;;;;;61.90;7.18;;;14.90;99.90;;;;;;5085779;28;20411;-72
2021/10/21 00:34:01;;;;;;;46.38;6.10;;;14.90;99.90;;;;;;5084070;28;20428;-71
2021/10/21 00:36:29;;;;;;;13.43;3.63;;;14.90;99.90;;;;;;5095634;28;20397;-70
2021/10/21 00:38:55;;;;;;;7.47;2.33;;;14.90;99.90;;;;;;5065897;28;20499;-71
2021/10/21 00:41:20;;;;;;;10.15;2.53;;;14.90;99.90;;;;;;5086033;28;20401;-71
2021/10/21 00:43:46;;;;;;;10.45;2.33;;;14.90;99.90;;;;;;5083416;28;20906;-70
2021/10/21 00:46:12;;;;;;;14.83;2.20;;;14.80;99.90;;;;;;5085035;28;20606;-71
2021/10/21 00:48:39;;;;;;;11.88;2.08;;;14.80;99.90;;;;;;5085643;28;20949;-71
2021/10/21 00:51:09;;;;;;;12.65;2.40;;;14.70;99.90;;;;;;5085650;28;20886;-70
2021/10/21 00:53:35;;;;;;;27.65;3.22;;;14.70;99.90;;;;;;5084063;28;20417;-69
2021/10/21 00:56:03;;;;;;;32.45;3.00;;;14.70;99.90;;;;;;5085456;28;20939;-71
2021/10/21 00:58:29;;;;;;;13.73;2.72;;;14.60;99.90;;;;;;5086422;28;20419;-70
2021/10/21 01:00:55;;;;;;;11.35;2.72;;;14.50;99.90;;;;;;5101500;28;20491;-70
2021/10/21 01:03:21;;;;;;;9.98;2.22;;;14.50;99.90;;;;;;5089121;28;20922;-70
2021/10/21 01:05:47;;;;;;;8.15;1.90;;;14.40;99.90;;;;;;5095253;28;20743;-71
2021/10/21 01:08:13;;;;;;;9.32;1.80;;;14.40;99.90;;;;;;5070586;28;20988;-71
2021/10/21 01:10:39;;;;;;;14.98;1.90;;;14.30;99.90;;;;;;5088979;28;20428;-71
2021/10/21 01:13:05;;;;;;;18.60;2.40;;;14.20;99.90;;;;;;5095522;28;20427;-71
2021/10/21 01:15:31;;;;;;;17.10;2.50;;;14.10;99.90;;;;;;5092936;28;20470;-71
2021/10/21 01:17:57;;;;;;;23.08;2.60;;;14.00;99.90;;;;;;5088536;28;20429;-71
2021/10/21 01:20:24;;;;;;;28.70;2.47;;;14.00;99.90;;;;;;5090386;28;20193;-71
2021/10/21 01:22:50;;;;;;;22.00;2.28;;;13.60;99.90;;;;;;5090306;28;21072;-71
2021/10/21 01:25:17;;;;;;;19.95;2.00;;;13.40;99.90;;;;;;5088712;28;20198;-71
2021/10/21 01:27:44;;;;;;;27.10;2.80;;;13.20;99.90;;;;;;5088194;28;20189;-71
2021/10/21 01:30:24;;;;;;;29.73;2.17;;;13.10;99.90;;;;;;5072111;28;20185;-71
2021/10/21 01:32:52;;;;;;;27.67;2.10;;;13.00;99.90;;;;;;5091055;28;20221;-72
2021/10/21 01:35:18;;;;;;;14.82;1.65;;;13.00;99.90;;;;;;5088717;28;20269;-72
2021/10/21 01:37:46;;;;;;;19.98;2.30;;;12.90;99.90;;;;;;5087921;28;20512;-71
2021/10/21 01:40:13;;;;;;;19.88;2.40;;;13.20;99.90;;;;;;5089518;28;20433;-71
2021/10/21 01:42:39;;;;;;;17.55;1.90;;;13.40;99.90;;;;;;5086110;28;20417;-71
2021/10/21 01:45:23;;;;;;;16.47;2.03;;;13.50;99.90;;;;;;5087266;28;20417;-71
2021/10/21 01:47:50;;;;;;;16.80;1.67;;;13.50;99.90;;;;;;5071005;28;20424;-71
2021/10/21 01:50:17;;;;;;;15.27;1.70;;;13.50;99.90;;;;;;5089426;28;20494;-71
2021/10/21 01:52:42;;;;;;;14.48;1.90;;;13.50;99.90;;;;;;5087249;28;20405;-71
2021/10/21 01:55:09;;;;;;;14.90;1.90;;;13.50;99.90;;;;;;5088860;28;20408;-71
2021/10/21 01:57:35;;;;;;;16.83;1.85;;;13.40;99.90;;;;;;5087742;28;20471;-72
2021/10/21 02:00:01;;;;;;;9.67;1.40;;;13.30;99.90;;;;;;5067934;28;20828;-71
2021/10/21 02:02:26;;;;;;;13.32;1.60;;;13.10;99.90;;;;;;5068779;28;20417;-71
2021/10/21 02:04:52;;;;;;;30.23;3.13;;;13.10;99.90;;;;;;5087565;28;20417;-71
2021/10/21 02:07:17;;;;;;;26.10;3.17;;;13.10;99.90;;;;;;5069525;28;20993;-72
2021/10/21 02:09:43;;;;;;;27.73;3.38;;;13.20;99.90;;;;;;5088985;28;20437;-71
2021/10/21 02:12:08;;;;;;;22.95;3.65;;;13.10;99.90;;;;;;5086729;28;20920;-71
2021/10/21 02:14:34;;;;;;;22.33;2.80;;;13.10;99.90;;;;;;5087680;28;20471;-71
2021/10/21 02:17:01;;;;;;;23.00;2.97;;;13.10;99.90;;;;;;5051058;28;20398;-71
2021/10/21 02:19:27;;;;;;;21.67;2.50;;;13.00;99.90;;;;;;5088586;28;20432;-71
2021/10/21 02:21:53;;;;;;;22.85;2.22;;;13.00;99.90;;;;;;5087091;28;20438;-71
2021/10/21 02:24:18;;;;;;;21.37;2.63;;;12.90;99.90;;;;;;5089059;28;20417;-71
2021/10/21 02:26:44;;;;;;;16.37;2.30;;;12.90;99.90;;;;;;5087971;28;20404;-71
2021/10/21 02:29:10;;;;;;;20.85;2.15;;;12.80;99.90;;;;;;5087682;28;20430;-71
2021/10/21 02:31:35;;;;;;;25.58;2.60;;;12.70;99.90;;;;;;5088948;28;20282;-71
2021/10/21 02:34:01;;;;;;;19.88;2.10;;;12.40;99.90;;;;;;5091271;28;20329;-71
2021/10/21 02:36:26;;;;;;;15.85;1.88;;;12.10;99.90;;;;;;5070487;28;20174;-72
2021/10/21 02:38:52;;;;;;;17.58;2.15;;;11.90;99.90;;;;;;5087630;28;20178;-71
2021/10/21 02:41:18;;;;;;;19.95;2.08;;;11.80;99.90;;;;;;5088943;28;20197;-71
2021/10/21 02:43:44;;;;;;;21.60;2.25;;;11.70;99.90;;;;;;5069331;28;20221;-70
2021/10/21 02:46:11;;;;;;;23.88;2.17;;;11.70;99.90;;;;;;5100102;28;20633;-71
2021/10/21 02:48:38;;;;;;;19.92;2.25;;;11.60;99.90;;;;;;5089018;28;20193;-70
2021/10/21 02:51:04;;;;;;;16.20;2.10;;;11.60;99.90;;;;;;5094013;28;20197;-70
2021/10/21 02:53:30;;;;;;;11.77;1.75;;;11.50;99.90;;;;;;5074352;28;20209;-69
2021/10/21 02:55:55;;;;;;;16.90;2.00;;;11.40;99.90;;;;;;5088255;28;20186;-70
2021/10/21 02:58:21;;;;;;;10.25;1.95;;;11.40;99.90;;;;;;5086936;28;20719;-70
2021/10/21 03:00:47;;;;;;;17.95;2.47;;;11.40;99.90;;;;;;5089036;28;20182;-70
2021/10/21 03:03:12;;;;;;;12.32;1.80;;;11.40;99.90;;;;;;5087453;28;20193;-70
2021/10/21 03:05:38;;;;;;;13.10;2.10;;;11.40;99.90;;;;;;5094677;28;20173;-70
2021/10/21 03:08:04;;;;;;;18.25;2.05;;;11.40;99.90;;;;;;5086571;28;20274;-70
2021/10/21 03:10:29;;;;;;;20.58;2.08;;;11.40;99.90;;;;;;5070837;28;20201;-70
2021/10/21 03:12:55;;;;;;;19.52;1.95;;;11.30;99.90;;;;;;5086297;28;20228;-72
2021/10/21 03:15:23;;;;;;;10.45;1.70;;;11.30;99.90;;;;;;5088531;28;20268;-71
2021/10/21 03:17:49;;;;;;;13.65;1.73;;;11.30;99.90;;;;;;5085996;28;20726;-72
2021/10/21 03:20:15;;;;;;;14.00;2.15;;;11.30;99.90;;;;;;5070718;28;20190;-72
2021/10/21 03:22:42;;;;;;;15.70;1.85;;;11.30;99.90;;;;;;5070155;28;20279;-71
2021/10/21 03:25:09;;;;;;;19.17;1.92;;;11.30;99.90;;;;;;5070428;28;20182;-71
2021/10/21 03:27:36;;;;;;;16.67;2.63;;;11.30;99.90;;;;;;5084773;28;20646;-71
2021/10/21 03:30:03;;;;;;;12.30;2.00;;;11.30;99.90;;;;;;5065196;28;20197;-71
2021/10/21 03:32:29;;;;;;;8.93;1.85;;;11.30;99.90;;;;;;5086549;28;20286;-71
2021/10/21 03:34:54;;;;;;;18.00;2.17;;;11.30;99.90;;;;;;5087845;28;20257;-71
2021/10/21 03:37:21;;;;;;;12.25;2.40;;;11.30;99.90;;;;;;5069403;28;20211;-71
2021/10/21 03:39:49;;;;;;;10.55;1.95;;;11.30;99.90;;;;;;5088358;28;20193;-71
2021/10/21 03:42:19;;;;;;;17.25;2.53;;;11.30;99.90;;;;;;5084593;28;20194;-71
2021/10/21 03:44:45;;;;;;;19.38;3.05;;;11.30;99.90;;;;;;5069725;28;20186;-71
2021/10/21 03:47:10;;;;;;;13.45;2.42;;;11.30;99.90;;;;;;5086602;28;21522;-71
2021/10/21 03:49:37;;;;;;;12.77;2.38;;;11.30;99.90;;;;;;5098716;28;20642;-72
2021/10/21 03:52:04;;;;;;;15.68;2.83;;;11.30;99.90;;;;;;5068480;28;20277;-71
2021/10/21 03:54:30;;;;;;;14.98;2.30;;;11.30;99.90;;;;;;5086190;28;20638;-72
2021/10/21 03:56:56;;;;;;;9.35;2.28;;;11.30;99.90;;;;;;5085119;28;20599;-71
2021/10/21 03:59:22;;;;;;;11.55;2.25;;;11.30;99.90;;;;;;5086540;28;20208;-72
2021/10/21 04:01:47;;;;;;;12.70;2.70;;;11.30;99.90;;;;;;5085801;28;20489;-72
2021/10/21 04:04:13;;;;;;;18.05;2.78;;;11.70;99.90;;;;;;5085734;28;20425;-72
2021/10/21 04:06:41;;;;;;;14.70;2.80;;;12.00;99.90;;;;;;5074280;28;20807;-72
2021/10/21 04:09:07;;;;;;;14.93;3.17;;;12.10;99.90;;;;;;5086332;28;20767;-71
2021/10/21 04:11:33;;;;;;;12.20;1.70;;;12.20;99.90;;;;;;5092215;28;20945;-71
2021/10/21 04:14:00;;;;;;;15.30;2.67;;;12.30;99.90;;;;;;5067093;28;20460;-71
2021/10/21 04:16:26;;;;;;;9.70;1.80;;;12.30;99.90;;;;;;5090710;28;20392;-70
2021/10/21 04:18:52;;;;;;;10.27;2.00;;;12.40;99.90;;;;;;5085449;28;20748;-70
2021/10/21 04:21:18;;;;;;;15.68;2.70;;;12.40;99.90;;;;;;5086422;28;20475;-71
2021/10/21 04:23:43;;;;;;;9.87;2.37;;;12.40;99.90;;;;;;5083810;28;20542;-70
2021/10/21 04:26:10;;;;;;;14.05;2.88;;;12.40;99.90;;;;;;5093048;28;20422;-71
2021/10/21 04:28:36;;;;;;;13.15;2.10;;;12.40;99.90;;;;;;5084087;28;21258;-71
2021/10/21 04:31:02;;;;;;;12.45;1.30;;;12.50;99.90;;;;;;5068323;28;20405;-72
2021/10/21 04:33:28;;;;;;;18.52;1.67;;;12.40;99.90;;;;;;5067131;28;20452;-71
2021/10/21 04:35:54;;;;;;;15.33;1.60;;;12.40;99.90;;;;;;5085905;28;20454;-71
2021/10/21 04:38:19;;;;;;;23.02;2.40;;;12.40;99.90;;;;;;5049259;28;20975;-71
2021/10/21 04:40:45;;;;;;;23.30;2.03;;;12.40;99.90;;;;;;5084555;28;20414;-71
2021/10/21 04:43:11;;;;;;;21.70;2.00;;;12.40;99.90;;;;;;5092181;28;20466;-72
2021/10/21 04:45:36;;;;;;;21.67;2.00;;;12.40;99.90;;;;;;5078236;28;20400;-73
2021/10/21 04:48:02;;;;;;;19.70;2.03;;;12.40;99.90;;;;;;5078777;28;20468;-71
2021/10/21 04:50:28;;;;;;;24.40;2.50;;;12.40;99.90;;;;;;5094577;28;20428;-72
2021/10/21 04:52:53;;;;;;;26.55;2.47;;;12.40;99.90;;;;;;5084710;28;20417;-71
2021/10/21 04:55:23;;;;;;;23.60;2.37;;;12.40;99.90;;;;;;5066727;28;20413;-72
2021/10/21 04:57:49;;;;;;;25.77;2.55;;;12.40;99.90;;;;;;5085882;28;20766;-72
2021/10/21 05:00:16;;;;;;;33.55;3.05;;;12.30;99.90;;;;;;5100385;28;20947;-72
2021/10/21 05:02:42;;;;;;;37.05;3.35;;;12.30;99.90;;;;;;5088355;28;20496;-72
2021/10/21 05:05:09;;;;;;;27.70;2.80;;;12.30;99.90;;;;;;5075730;28;20389;-72
2021/10/21 05:07:35;;;;;;;25.83;2.80;;;12.30;99.90;;;;;;5088784;28;20509;-72
2021/10/21 05:10:00;;;;;;;26.00;2.70;;;12.30;99.90;;;;;;5089438;28;20497;-72
2021/10/21 05:12:26;;;;;;;15.60;2.75;;;12.30;99.90;;;;;;5087908;28;20429;-72
2021/10/21 05:14:56;;;;;;;19.33;2.53;;;12.30;99.90;;;;;;5052569;28;20405;-72
2021/10/21 05:17:22;;;;;;;14.30;1.90;;;12.30;99.90;;;;;;5086780;28;20405;-70
2021/10/21 05:19:48;;;;;;;20.60;2.20;;;12.20;99.90;;;;;;5049143;28;20484;-72
2021/10/21 05:22:15;;;;;;;15.63;2.28;;;12.20;99.90;;;;;;5085485;28;20826;-72
2021/10/21 05:24:41;;;;;;;15.77;1.83;;;12.30;99.90;;;;;;5071794;28;20410;-72
2021/10/21 05:27:08;;;;;;;17.75;2.03;;;12.20;99.90;;;;;;5086252;28;20426;-71
2021/10/21 05:29:35;;;;;;;18.80;2.40;;;12.20;99.90;;;;;;5092182;28;20413;-73
2021/10/21 05:32:05;;;;;;;15.25;2.10;;;12.20;99.90;;;;;;5101716;28;20976;-70
2021/10/21 05:34:31;;;;;;;15.77;2.40;;;12.20;99.90;;;;;;5082866;28;20456;-70
2021/10/21 05:36:57;;;;;;;13.32;1.80;;;12.30;99.90;;;;;;5086359;28;20954;-72
2021/10/21 05:39:23;;;;;;;18.75;2.20;;;12.30;99.90;;;;;;5090336;28;20392;-72
2021/10/21 05:41:49;;;;;;;17.73;2.20;;;12.30;99.90;;;;;;5076672;28;20435;-72
2021/10/21 05:44:14;;;;;;;18.33;2.40;;;12.30;99.90;;;;;;5072689;28;20493;-73
2021/10/21 05:46:40;;;;;;;31.17;2.97;;;12.30;99.90;;;;;;5076587;28;20406;-72
2021/10/21 05:49:05;;;;;;;25.93;3.33;;;12.40;99.90;;;;;;5072256;28;20513;-72
2021/10/21 05:51:31;;;;;;;20.97;3.00;;;12.40;99.90;;;;;;5069057;28;20450;-72
2021/10/21 05:53:57;;;;;;;25.42;3.40;;;12.50;99.90;;;;;;5087951;28;20455;-71
2021/10/21 05:56:22;;;;;;;23.27;3.17;;;12.50;99.90;;;;;;5102176;28;20411;-72
2021/10/21 05:58:48;;;;;;;23.52;3.67;;;12.50;99.90;;;;;;5094069;28;20411;-71
2021/10/21 06:01:14;;;;;;;22.13;2.92;;;12.50;99.90;;;;;;5071015;28;20401;-72
2021/10/21 06:03:39;;;;;;;20.67;2.40;;;12.50;99.90;;;;;;5093484;28;20960;-72
2021/10/21 06:06:06;;;;;;;19.98;2.70;;;12.50;99.90;;;;;;5092594;28;20523;-73
2021/10/21 06:08:33;;;;;;;22.38;3.25;;;12.50;99.90;;;;;;5096446;28;20850;-73
2021/10/21 06:11:04;;;;;;;21.92;2.85;;;12.50;99.90;;;;;;5087613;28;20935;-71
2021/10/21 06:13:33;;;;;;;22.08;2.80;;;12.50;99.90;;;;;;5089398;28;20758;-72
2021/10/21 06:15:59;;;;;;;28.00;3.40;;;12.60;99.90;;;;;;5099633;28;20421;-72
2021/10/21 06:18:25;;;;;;;24.48;3.63;;;12.60;99.90;;;;;;5096104;27;20417;-70
2021/10/21 06:20:50;;;;;;;26.30;3.47;;;12.60;99.90;;;;;;5091222;28;20409;-70
2021/10/21 06:23:16;;;;;;;17.85;2.95;;;12.60;99.90;;;;;;5090100;28;20413;-69
2021/10/21 06:25:42;;;;;;;21.33;2.87;;;12.60;99.90;;;;;;5073109;28;20512;-70
2021/10/21 06:28:07;;;;;;;17.80;2.80;;;12.60;99.90;;;;;;5085414;28;20526;-71
2021/10/21 06:30:35;;;;;;;16.80;2.80;;;12.60;99.90;;;;;;5093678;28;20410;-72
2021/10/21 06:33:02;;;;;;;17.08;2.30;;;12.60;99.90;;;;;;5084001;28;20447;-69
2021/10/21 06:35:28;;;;;;;15.30;2.28;;;12.60;99.90;;;;;;5070188;28;20406;-70
2021/10/21 06:37:53;;;;;;;14.67;2.47;;;12.60;99.90;;;;;;5084074;28;20410;-71
2021/10/21 06:40:19;;;;;;;12.10;2.37;;;12.60;99.90;;;;;;5069219;28;20452;-70
2021/10/21 06:42:44;;;;;;;15.98;2.80;;;12.60;99.90;;;;;;5084858;28;20496;-73
2021/10/21 06:45:11;;;;;;;19.87;3.00;;;12.60;99.90;;;;;;5084079;28;21001;-73
2021/10/21 06:47:41;;;;;;;16.83;2.65;;;12.60;99.90;;;;;;5074851;28;20425;-72
2021/10/21 06:50:11;;;;;;;14.87;2.20;;;12.60;99.90;;;;;;5067697;28;20424;-71
2021/10/21 06:52:38;;;;;;;15.18;2.45;;;12.60;99.90;;;;;;5072873;28;20475;-71
2021/10/21 06:55:04;;;;;;;15.27;3.13;;;12.70;99.90;;;;;;5073589;28;20416;-71
2021/10/21 06:57:30;;;;;;;15.73;2.28;;;12.70;99.90;;;;;;5082031;28;20415;-72
2021/10/21 06:59:56;;;;;;;13.83;2.13;;;12.70;99.90;;;;;;5092663;28;20409;-72
2021/10/21 07:02:22;;;;;;;18.38;2.55;;;12.70;99.90;;;;;;5085359;28;20839;-71
2021/10/21 07:04:48;;;;;;;16.73;2.60;;;12.70;99.90;;;;;;5091538;28;20499;-70
2021/10/21 07:07:13;;;;;;;15.93;2.90;;;12.70;99.90;;;;;;5095052;28;20415;-71
2021/10/21 07:09:39;;;;;;;20.97;3.43;;;12.80;99.90;;;;;;5111838;27;20430;-71
2021/10/21 07:12:05;;;;;;;17.55;3.10;;;12.80;99.90;;;;;;5091192;28;20514;-72
2021/10/21 07:14:31;;;;;;;50.30;5.88;;;12.80;99.90;;;;;;5110481;27;20401;-72
2021/10/21 07:16:56;;;;;;;27.40;3.78;;;12.70;99.90;;;;;;5069371;28;20410;-72
2021/10/21 07:19:22;;;;;;;21.10;3.20;;;12.70;99.90;;;;;;5105850;27;20430;-72
2021/10/21 07:21:48;;;;;;;25.17;3.53;;;12.60;99.90;;;;;;5097344;28;20464;-72
2021/10/21 07:24:13;;;;;;;22.38;3.33;;;12.50;99.90;;;;;;5087765;28;20425;-72
2021/10/21 07:26:41;;;;;;;19.90;2.93;;;12.50;99.90;;;;;;5079129;28;20415;-72
2021/10/21 07:29:07;;;;;;;17.83;3.15;;;12.40;99.90;;;;;;5073834;28;20437;-73
2021/10/21 07:31:33;;;;;;;15.15;2.50;;;12.30;99.90;;;;;;5088665;28;20489;-72
2021/10/21 07:33:59;;;;;;;14.30;2.67;;;12.30;99.90;;;;;;5095812;28;20503;-72
2021/10/21 07:36:24;;;;;;;19.73;3.30;;;12.20;99.90;;;;;;5093201;28;20414;-72
2021/10/21 07:38:50;;;;;;;23.77;3.47;;;12.20;99.90;;;;;;5088722;28;20983;-72
2021/10/21 07:41:18;;;;;;;16.65;3.03;;;12.30;99.90;;;;;;5088040;28;20411;-72
2021/10/21 07:43:43;;;;;;;22.85;3.45;;;12.30;99.90;;;;;;5092310;28;20453;-72
2021/10/21 07:46:09;;;;;;;23.13;3.28;;;12.30;99.90;;;;;;5087037;28;20511;-72
2021/10/21 07:48:35;;;;;;;20.87;3.67;;;12.40;99.90;;;;;;5092040;28;20404;-73
2021/10/21 07:51:01;;;;;;;21.42;3.30;;;12.50;99.90;;;;;;5092379;28;20849;-72
2021/10/21 07:53:28;;;;;;;20.92;3.25;;;12.60;99.90;;;;;;5083811;28;20417;-73
2021/10/21 07:55:54;;;;;;;17.15;2.75;;;12.70;99.90;;;;;;5086470;28;20929;-73
2021/10/21 07:58:20;;;;;;;15.30;3.15;;;12.90;99.90;;;;;;5083178;28;20505;-69
2021/10/21 08:00:46;;;;;;;18.48;3.08;;;13.20;99.90;;;;;;5086304;28;20562;-72
2021/10/21 08:03:12;;;;;;;20.55;2.60;;;13.50;99.90;;;;;;5095003;28;20921;-74
2021/10/21 08:05:37;;;;;;;17.67;2.90;;;13.90;99.10;;;;;;5076427;28;20569;-74
2021/10/21 08:08:04;;;;;;;19.73;2.97;;;14.00;97.80;;;;;;5076757;28;20406;-74
2021/10/21 08:10:31;;;;;;;16.83;2.70;;;14.00;97.70;;;;;;5091465;28;20427;-75
2021/10/21 08:12:57;;;;;;;;;;;14.40;97.60;;;;;;5068911;28;20048;-72
2021/10/21 08:15:23;;;;;;;13.25;2.05;;;14.50;98.30;;;;;;5082018;28;20210;-72
2021/10/21 08:17:50;;;;;;;15.95;2.72;;;14.80;99.90;;;;;;5077877;28;20417;-71
2021/10/21 08:20:16;;;;;;;14.82;2.40;;;16.50;93.70;;;;;;5070694;28;20416;-72
2021/10/21 08:22:43;;;;;;;;;;;17.60;89.60;;;;;;5085153;28;20032;-72
2021/10/21 08:25:10;;;;;;;;;;;17.30;91.30;;;;;;5094827;28;19990;-73
2021/10/21 08:27:35;;;;;;;;;;;17.30;94.30;;;;;;5086242;28;19908;-72
2021/10/21 08:30:01;;;;;;;;;;;17.50;94.50;;;;;;5085324;28;19919;-72
2021/10/21 08:32:27;;;;;;;;;;;17.60;95.10;;;;;;5073849;28;19912;-72
2021/10/21 08:34:52;;;;;;;;;;;17.70;95.40;;;;;;5092834;28;20017;-73
2021/10/21 08:37:18;;;;;;;;;;;18.10;97.40;;;;;;5074049;28;19994;-73
2021/10/21 08:39:43;;;;;;;;;;;18.40;95.00;;;;;;5095835;28;19950;-73
2021/10/21 08:42:10;;;;;;;;;;;18.20;95.90;;;;;;5089720;28;21549;-73
2021/10/21 08:44:36;;;;;;;;;;;18.00;96.90;;;;;;5083863;28;20387;-72
2021/10/21 08:47:02;;;;;;;;;;;17.70;95.60;;;;;;5090366;28;19959;-72
2021/10/21 08:49:28;;;;;;;12.70;2.45;;;17.10;96.30;;;;;;5072441;28;20452;-72
2021/10/21 08:51:55;;;;;;;16.67;2.22;;;17.50;89.60;;;;;;5052600;28;20188;-72
2021/10/21 08:54:22;;;;;;;14.07;2.03;;;16.80;90.90;;;;;;5091006;28;20995;-74
2021/10/21 08:56:48;;;;;;;16.63;2.30;;;16.10;91.80;;;;;;5084318;28;20209;-73
2021/10/21 08:59:14;;;;;;;13.00;2.10;;;15.70;92.20;;;;;;5085477;28;20277;-72
2021/10/21 09:01:49;;;;;;;13.15;2.15;;;15.30;92.70;;;;;;5087673;28;20265;-73
2021/10/21 09:09:45;;;;;;;17.52;2.45;;;14.30;94.00;;;;;;5101549;28;20193;-70
2021/10/21 09:12:15;;;;;;;;;;;14.10;94.40;;;;;;5090015;28;20056;-69
2021/10/21 09:14:42;;;;;;;;;;;13.90;95.00;;;;;;5085310;28;19920;-69
2021/10/21 09:17:09;;;;;;;12.73;2.13;;;13.70;95.20;;;;;;5086473;28;20271;-70
2021/10/21 09:19:36;;;;;;;14.50;1.95;;;13.60;95.80;;;;;;5095785;28;20909;-71
2021/10/21 09:22:06;;;;;;;14.38;1.95;;;14.30;95.60;;;;;;5059157;28;20416;-70
2021/10/21 09:24:40;;;;;;;13.68;1.92;;;14.90;94.90;;;;;;5096220;28;20416;-70
2021/10/21 09:27:20;;;;;;;16.05;3.38;;;15.30;93.70;;;;;;5096059;28;20437;-70
2021/10/21 09:29:45;;;;;;;16.87;2.90;;;15.40;93.40;;;;;;5091415;28;20905;-70
2021/10/21 09:32:18;;;;;;;10.13;2.28;;;15.30;93.10;;;;;;5071666;28;20413;-70
2021/10/21 09:34:47;;;;;;;12.57;2.35;;;15.20;93.50;;;;;;5091516;28;20450;-71
2021/10/21 09:37:14;;;;;;;16.55;2.28;;;15.00;94.00;;;;;;5091291;28;20487;-70
2021/10/21 09:39:46;;;;;;;13.27;2.10;;;14.90;94.10;;;;;;5087847;28;20471;-70
2021/10/21 09:42:12;;;;;;;11.18;2.67;;;14.90;94.20;;;;;;5088012;28;20415;-70
2021/10/21 09:44:38;;;;;;;17.02;3.30;;;14.80;94.50;;;;;;5094175;28;20446;-71
2021/10/21 09:47:22;;;;;;;20.00;3.27;;;14.70;95.60;;;;;;5086860;28;20963;-71
2021/10/21 09:49:54;;;;;;;16.98;4.18;;;14.70;96.40;;;;;;5094181;28;20413;-71
2021/10/21 09:52:22;;;;;;;21.85;3.15;;;14.70;96.60;;;;;;5072455;28;20413;-71
2021/10/21 09:54:51;;;;;;;15.30;2.60;;;14.60;97.30;;;;;;5097188;28;20409;-71
2021/10/21 09:57:18;;;;;;;14.18;2.13;;;14.60;98.00;;;;;;5089852;28;20489;-70
2021/10/21 10:00:04;;;;;;;13.65;2.58;;;14.60;98.30;;;;;;5092529;28;20479;-72
2021/10/21 10:02:38;;;;;;;10.10;1.80;;;14.60;98.70;;;;;;5090398;28;20408;-71
2021/10/21 10:05:04;;;;;;;14.90;1.85;;;14.80;98.70;;;;;;5088884;28;20449;-70
2021/10/21 10:07:35;;;;;;;9.38;1.30;;;14.90;98.50;;;;;;5070117;28;20421;-70
2021/10/21 10:10:03;;;;;;;14.23;2.00;;;15.00;98.80;;;;;;5087682;28;20479;-70
2021/10/21 10:12:35;;;;;;;19.42;3.20;;;15.00;98.30;;;;;;5092112;28;20432;-70
2021/10/21 10:15:02;;;;;;;15.25;2.30;;;14.90;98.00;;;;;;5074096;28;20743;-70
2021/10/21 10:17:30;;;;;;;12.85;2.45;;;14.70;98.40;;;;;;5092477;28;20413;-69
2021/10/21 10:19:56;;;;;;;18.55;2.05;;;14.50;98.80;;;;;;5093493;28;20392;-70
2021/10/21 10:22:33;;;;;;;15.02;2.47;;;14.30;99.30;;;;;;5093328;28;20413;-70
2021/10/21 10:24:59;;;;;;;18.92;3.65;;;14.10;99.90;;;;;;5088979;28;20478;-70
2021/10/21 10:27:28;;;;;;;13.75;2.28;;;13.90;99.90;;;;;;5089833;28;20321;-70
2021/10/21 10:29:56;;;;;;;17.10;2.72;;;13.40;99.90;;;;;;5089536;28;20410;-71
2021/10/21 10:32:38;;;;;;;18.25;2.38;;;13.50;99.90;;;;;;5075556;28;20424;-69
2021/10/21 10:35:07;;;;;;;17.50;2.17;;;13.50;99.90;;;;;;5083653;28;21210;-69
2021/10/21 10:37:37;;;;;;;15.68;2.50;;;13.50;99.90;;;;;;5073668;28;20529;-69
2021/10/21 10:40:04;;;;;;;19.27;3.20;;;13.50;99.90;;;;;;5087138;28;20483;-69
2021/10/21 10:42:30;;;;;;;15.98;2.40;;;13.50;99.90;;;;;;5070837;28;20421;-70
2021/10/21 10:44:58;;;;;;;20.13;2.17;;;13.60;99.90;;;;;;5080440;28;20439;-70
2021/10/21 10:47:44;;;;;;;14.07;2.30;;;13.70;99.90;;;;;;5084503;28;21999;-70
2021/10/21 10:50:21;;;;;;;9.65;1.50;;;14.00;99.90;;;;;;5094718;28;20481;-70
2021/10/21 10:52:55;;;;;;;10.68;1.50;;;14.10;98.70;;;;;;5071172;28;20413;-70
2021/10/21 10:55:22;;;;;;;9.73;1.67;;;14.10;97.10;;;;;;5096474;28;20747;-70
2021/10/21 10:57:48;;;;;;;7.15;1.40;;;14.20;97.30;;;;;;5097571;28;20902;-69
2021/10/21 11:00:35;;;;;;;12.98;1.70;;;14.30;96.80;;;;;;5098150;28;20433;-69
2021/10/21 11:03:01;;;;;;;9.15;1.70;;;14.40;96.90;;;;;;5085952;28;20826;-69
2021/10/21 11:05:48;;;;;;;11.52;1.70;;;14.40;96.60;;;;;;5092317;28;20414;-69
2021/10/21 11:08:15;;;;;;;12.25;3.40;;;14.40;96.00;;;;;;5070672;28;20486;-71
2021/10/21 11:10:44;;;;;;;10.77;1.70;;;14.40;95.80;;;;;;5072117;28;20418;-70
2021/10/21 11:13:21;;;;;;;11.70;1.38;;;14.30;94.70;;;;;;5086885;28;20758;-70
2021/10/21 11:15:48;;;;;;;10.00;1.52;;;14.20;95.50;;;;;;5091446;28;20406;-69
2021/10/21 11:18:44;;;;;;;13.18;2.00;;;14.20;95.80;;;;;;5090996;28;20415;-68
2021/10/21 11:21:48;;;;;;;12.18;1.83;;;14.50;96.10;;;;;;5092409;28;20860;-70
2021/10/21 11:24:42;;;;;;;13.98;1.90;;;15.00;95.20;;;;;;5068903;28;20412;-69
2021/10/21 11:27:08;;;;;;;15.35;2.13;;;15.30;94.00;;;;;;5086091;28;20430;-70
2021/10/21 11:29:34;;;;;;;16.15;2.42;;;15.50;93.90;;;;;;5090689;28;20826;-69
2021/10/21 11:32:06;;;;;;;17.23;1.90;;;15.90;94.00;;;;;;5090859;28;20185;-69
2021/10/21 11:34:32;;;;;;;11.02;2.13;;;15.80;94.80;;;;;;5093808;28;20259;-70
2021/10/21 11:36:58;;;;;;;17.00;1.90;;;15.70;95.10;;;;;;5087374;28;20186;-69
2021/10/21 11:39:36;;;;;;;17.48;2.20;;;15.60;95.00;;;;;;5089120;28;20178;-70
2021/10/21 11:42:04;;;;;;;15.32;2.35;;;15.40;94.90;;;;;;5088296;28;20189;-70
2021/10/21 11:44:30;;;;;;;10.48;2.13;;;15.30;95.30;;;;;;5092024;28;20635;-70
2021/10/21 11:47:01;;;;;;;9.13;1.60;;;15.00;95.40;;;;;;5085463;28;20193;-70
2021/10/21 11:49:35;;;;;;;12.38;1.83;;;14.70;95.60;;;;;;5078148;28;20495;-70
2021/10/21 11:52:12;;;;;;;11.48;1.98;;;15.10;94.90;;;;;;5072820;28;22831;-70
2021/10/21 11:54:39;;;;;;;16.27;5.75;;;15.20;94.40;;;;;;5096009;28;20752;-70
2021/10/21 11:57:06;;;;;;;12.25;1.63;;;15.10;94.50;;;;;;5089428;28;20423;-70
2021/10/21 11:59:36;;;;;;;15.85;2.10;;;15.10;94.70;;;;;;5086086;28;20413;-70
2021/10/21 12:02:15;;;;;;;9.68;1.67;;;15.00;95.00;;;;;;5085214;28;20444;-72
2021/10/21 12:04:46;;;;;;;9.63;1.70;;;15.00;93.70;;;;;;5094148;28;20496;-70
2021/10/21 12:07:13;;;;;;;7.90;1.30;;;14.90;92.70;;;;;;5091545;28;20884;-70
2021/10/21 12:09:40;;;;;;;10.38;1.50;;;14.90;92.60;;;;;;5101254;28;20178;-70
2021/10/21 12:12:07;;;;;;;10.10;1.52;;;14.40;93.70;;;;;;5088597;28;20222;-70
2021/10/21 12:14:36;;;;;;;7.70;1.10;;;14.10;94.80;;;;;;5088747;28;20312;-71
2021/10/21 12:17:04;;;;;;;9.75;1.38;;;14.00;95.30;;;;;;5095552;28;20261;-71
2021/10/21 12:19:30;;;;;;;16.00;1.83;;;13.90;95.60;;;;;;5096914;28;20190;-72
2021/10/21 12:22:14;;;;;;;13.70;1.42;;;13.80;95.80;;;;;;5085681;28;20179;-70
2021/10/21 12:24:42;;;;;;;7.70;1.48;;;13.60;95.90;;;;;;5102071;28;20212;-71
2021/10/21 12:27:09;;;;;;;10.23;1.80;;;13.40;96.00;;;;;;5087121;28;20200;-72
2021/10/21 12:29:44;;;;;;;13.98;2.13;;;13.30;96.20;;;;;;5085306;28;20282;-71
2021/10/21 12:32:15;;;;;;;10.68;2.00;;;13.20;96.30;;;;;;5086969;28;20668;-69
2021/10/21 12:34:42;;;;;;;12.50;2.40;;;13.10;96.40;;;;;;5088130;28;20229;-70
2021/10/21 12:37:15;;;;;;;19.05;2.53;;;13.00;96.40;;;;;;5071441;28;20195;-69
2021/10/21 12:39:41;;;;;;;25.13;2.95;;;13.00;96.40;;;;;;5073877;28;20205;-71
2021/10/21 12:42:09;;;;;;;23.10;2.72;;;12.90;96.60;;;;;;5082805;28;20722;-71
2021/10/21 12:44:37;;;;;;;19.70;2.30;;;13.00;97.10;;;;;;5105973;28;20560;-70
2021/10/21 12:47:15;;;;;;;;;;;13.30;97.50;;;;;;5068762;28;20031;-69
2021/10/21 12:49:51;;;;;;;;;;;13.60;97.50;;;;;;5085696;28;20318;-70
2021/10/21 12:52:21;;;;;;;;;;;13.90;97.80;;;;;;5089240;28;19923;-70